sensor_id;sensor_type;location;lat;lon;timestamp;P1;durP1;ratioP1;P2;durP2;ratioP2
33152;SDS011;19509;43.862;26.176;2023-02-26T00:01:39;10.67;;;10.17;;
33152;SDS011;19509;43.862;26.176;2023-02-26T00:04:06;5.80;;;5.50;;
33152;SDS011;19509;43.862;26.176;2023-02-26T00:06:33;3.20;;;3.10;;
33152;SDS011;19509;43.862;26.176;2023-02-26T00:09:01;3.27;;;3.00;;
33152;SDS011;19509;43.862;26.176;2023-02-26T00:11:28;2.00;;;2.00;;
33152;SDS011;19509;43.862;26.176;2023-02-26T00:13:54;2.20;;;2.00;;
33152;SDS011;19509;43.862;26.176;2023-02-26T00:18:57;2.10;;;2.00;;
33152;SDS011;19509;43.862;26.176;2023-02-26T00:21:24;1.90;;;1.90;;
33152;SDS011;19509;43.862;26.176;2023-02-26T00:23:51;2.10;;;2.00;;
33152;SDS011;19509;43.862;26.176;2023-02-26T00:26:17;1.93;;;1.93;;
33152;SDS011;19509;43.862;26.176;2023-02-26T00:28:43;2.23;;;2.13;;
33152;SDS011;19509;43.862;26.176;2023-02-26T00:31:09;2.40;;;2.20;;
33152;SDS011;19509;43.862;26.176;2023-02-26T00:33:35;2.20;;;2.10;;
33152;SDS011;19509;43.862;26.176;2023-02-26T00:36:02;2.23;;;2.13;;
33152;SDS011;19509;43.862;26.176;2023-02-26T00:38:33;2.07;;;2.07;;
33152;SDS011;19509;43.862;26.176;2023-02-26T00:41:00;1.90;;;1.90;;
33152;SDS011;19509;43.862;26.176;2023-02-26T00:43:26;2.10;;;2.10;;
33152;SDS011;19509;43.862;26.176;2023-02-26T00:48:37;2.63;;;1.93;;
33152;SDS011;19509;43.862;26.176;2023-02-26T00:56:37;1.93;;;1.83;;
33152;SDS011;19509;43.862;26.176;2023-02-26T00:59:02;1.90;;;1.90;;
33152;SDS011;19509;43.862;26.176;2023-02-26T01:01:28;2.20;;;2.00;;
33152;SDS011;19509;43.862;26.176;2023-02-26T01:03:54;1.90;;;1.90;;
33152;SDS011;19509;43.862;26.176;2023-02-26T01:06:20;2.40;;;2.20;;
33152;SDS011;19509;43.862;26.176;2023-02-26T01:08:53;2.10;;;2.10;;
33152;SDS011;19509;43.862;26.176;2023-02-26T01:11:35;2.20;;;2.20;;
33152;SDS011;19509;43.862;26.176;2023-02-26T01:14:01;2.30;;;2.20;;
33152;SDS011;19509;43.862;26.176;2023-02-26T01:16:29;2.20;;;2.10;;
33152;SDS011;19509;43.862;26.176;2023-02-26T01:19:21;1.97;;;1.97;;
33152;SDS011;19509;43.862;26.176;2023-02-26T01:21:54;1.93;;;1.93;;
33152;SDS011;19509;43.862;26.176;2023-02-26T01:24:25;2.00;;;2.00;;
33152;SDS011;19509;43.862;26.176;2023-02-26T01:26:54;1.97;;;1.87;;
33152;SDS011;19509;43.862;26.176;2023-02-26T01:29:20;2.23;;;2.13;;
33152;SDS011;19509;43.862;26.176;2023-02-26T01:34:34;2.40;;;2.03;;
33152;SDS011;19509;43.862;26.176;2023-02-26T01:37:02;1.80;;;1.80;;
33152;SDS011;19509;43.862;26.176;2023-02-26T01:39:42;1.93;;;1.83;;
33152;SDS011;19509;43.862;26.176;2023-02-26T01:42:17;2.30;;;2.10;;
33152;SDS011;19509;43.862;26.176;2023-02-26T01:49:52;2.23;;;2.03;;
33152;SDS011;19509;43.862;26.176;2023-02-26T01:53:20;1.87;;;1.77;;
33152;SDS011;19509;43.862;26.176;2023-02-26T01:55:18;1.70;;;1.70;;
33152;SDS011;19509;43.862;26.176;2023-02-26T01:57:46;1.93;;;1.90;;
33152;SDS011;19509;43.862;26.176;2023-02-26T02:00:13;2.00;;;1.90;;
33152;SDS011;19509;43.862;26.176;2023-02-26T02:02:40;1.90;;;1.80;;
33152;SDS011;19509;43.862;26.176;2023-02-26T02:05:06;2.10;;;2.00;;
33152;SDS011;19509;43.862;26.176;2023-02-26T02:07:38;2.27;;;2.17;;
33152;SDS011;19509;43.862;26.176;2023-02-26T02:10:03;1.90;;;1.90;;
33152;SDS011;19509;43.862;26.176;2023-02-26T02:15:21;2.23;;;2.10;;
33152;SDS011;19509;43.862;26.176;2023-02-26T02:17:50;2.03;;;2.03;;
33152;SDS011;19509;43.862;26.176;2023-02-26T02:32:07;2.00;;;1.90;;
33152;SDS011;19509;43.862;26.176;2023-02-26T02:34:36;1.80;;;1.80;;
33152;SDS011;19509;43.862;26.176;2023-02-26T02:40:01;1.70;;;1.70;;
33152;SDS011;19509;43.862;26.176;2023-02-26T02:42:34;1.57;;;1.57;;
33152;SDS011;19509;43.862;26.176;2023-02-26T02:45:09;1.70;;;1.70;;
33152;SDS011;19509;43.862;26.176;2023-02-26T02:48:04;1.63;;;1.63;;
33152;SDS011;19509;43.862;26.176;2023-02-26T02:50:36;2.50;;;1.60;;
33152;SDS011;19509;43.862;26.176;2023-02-26T02:53:27;1.50;;;1.50;;
33152;SDS011;19509;43.862;26.176;2023-02-26T02:55:59;1.33;;;1.33;;
33152;SDS011;19509;43.862;26.176;2023-02-26T02:58:30;1.30;;;1.30;;
33152;SDS011;19509;43.862;26.176;2023-02-26T03:01:03;1.70;;;1.60;;
33152;SDS011;19509;43.862;26.176;2023-02-26T03:06:07;1.30;;;1.30;;
33152;SDS011;19509;43.862;26.176;2023-02-26T03:08:35;1.30;;;1.30;;
33152;SDS011;19509;43.862;26.176;2023-02-26T03:11:04;1.40;;;1.40;;
33152;SDS011;19509;43.862;26.176;2023-02-26T03:13:30;1.60;;;1.50;;
33152;SDS011;19509;43.862;26.176;2023-02-26T03:16:00;1.33;;;1.33;;
33152;SDS011;19509;43.862;26.176;2023-02-26T03:27:26;1.07;;;1.07;;
33152;SDS011;19509;43.862;26.176;2023-02-26T03:29:30;1.87;;;1.77;;
33152;SDS011;19509;43.862;26.176;2023-02-26T03:32:09;1.53;;;1.40;;
33152;SDS011;19509;43.862;26.176;2023-02-26T03:34:46;1.40;;;1.40;;
33152;SDS011;19509;43.862;26.176;2023-02-26T03:37:30;1.80;;;1.70;;
33152;SDS011;19509;43.862;26.176;2023-02-26T03:40:00;1.43;;;1.43;;
33152;SDS011;19509;43.862;26.176;2023-02-26T03:42:31;1.30;;;1.30;;
33152;SDS011;19509;43.862;26.176;2023-02-26T03:45:32;1.63;;;1.53;;
33152;SDS011;19509;43.862;26.176;2023-02-26T03:48:00;1.60;;;1.50;;
33152;SDS011;19509;43.862;26.176;2023-02-26T03:50:34;1.30;;;1.30;;
33152;SDS011;19509;43.862;26.176;2023-02-26T03:53:10;1.30;;;1.30;;
33152;SDS011;19509;43.862;26.176;2023-02-26T03:55:40;1.50;;;1.40;;
33152;SDS011;19509;43.862;26.176;2023-02-26T03:58:10;1.30;;;1.30;;
33152;SDS011;19509;43.862;26.176;2023-02-26T04:00:36;1.30;;;1.30;;
33152;SDS011;19509;43.862;26.176;2023-02-26T04:03:16;1.77;;;1.67;;
33152;SDS011;19509;43.862;26.176;2023-02-26T04:05:49;1.27;;;1.27;;
33152;SDS011;19509;43.862;26.176;2023-02-26T04:08:16;1.40;;;1.30;;
33152;SDS011;19509;43.862;26.176;2023-02-26T04:11:24;1.40;;;1.40;;
33152;SDS011;19509;43.862;26.176;2023-02-26T04:13:43;1.23;;;1.23;;
33152;SDS011;19509;43.862;26.176;2023-02-26T04:16:10;1.20;;;1.20;;
33152;SDS011;19509;43.862;26.176;2023-02-26T04:18:35;1.30;;;1.30;;
33152;SDS011;19509;43.862;26.176;2023-02-26T04:21:01;1.77;;;1.67;;
33152;SDS011;19509;43.862;26.176;2023-02-26T04:23:26;1.40;;;1.30;;
33152;SDS011;19509;43.862;26.176;2023-02-26T04:25:52;1.57;;;1.57;;
33152;SDS011;19509;43.862;26.176;2023-02-26T04:28:18;1.30;;;1.30;;
33152;SDS011;19509;43.862;26.176;2023-02-26T04:30:43;1.20;;;1.10;;
33152;SDS011;19509;43.862;26.176;2023-02-26T04:33:09;1.40;;;1.30;;
33152;SDS011;19509;43.862;26.176;2023-02-26T04:35:35;1.20;;;1.10;;
33152;SDS011;19509;43.862;26.176;2023-02-26T04:38:00;1.70;;;1.60;;
33152;SDS011;19509;43.862;26.176;2023-02-26T04:40:26;1.27;;;1.27;;
33152;SDS011;19509;43.862;26.176;2023-02-26T04:42:52;1.90;;;1.80;;
33152;SDS011;19509;43.862;26.176;2023-02-26T04:45:17;1.70;;;1.70;;
33152;SDS011;19509;43.862;26.176;2023-02-26T04:47:43;1.60;;;1.50;;
33152;SDS011;19509;43.862;26.176;2023-02-26T04:50:08;1.40;;;1.40;;
33152;SDS011;19509;43.862;26.176;2023-02-26T04:52:34;1.30;;;1.30;;
33152;SDS011;19509;43.862;26.176;2023-02-26T04:55:00;1.70;;;1.60;;
33152;SDS011;19509;43.862;26.176;2023-02-26T04:57:25;1.80;;;1.70;;
33152;SDS011;19509;43.862;26.176;2023-02-26T04:59:51;1.80;;;1.70;;
33152;SDS011;19509;43.862;26.176;2023-02-26T05:02:17;1.97;;;1.80;;
33152;SDS011;19509;43.862;26.176;2023-02-26T05:04:43;1.90;;;1.90;;
33152;SDS011;19509;43.862;26.176;2023-02-26T05:07:08;1.87;;;1.80;;
33152;SDS011;19509;43.862;26.176;2023-02-26T05:09:34;1.63;;;1.60;;
33152;SDS011;19509;43.862;26.176;2023-02-26T05:11:59;1.60;;;1.50;;
33152;SDS011;19509;43.862;26.176;2023-02-26T05:14:25;1.50;;;1.50;;
33152;SDS011;19509;43.862;26.176;2023-02-26T05:16:51;1.70;;;1.30;;
33152;SDS011;19509;43.862;26.176;2023-02-26T05:19:16;2.00;;;1.90;;
33152;SDS011;19509;43.862;26.176;2023-02-26T05:21:42;2.00;;;1.90;;
33152;SDS011;19509;43.862;26.176;2023-02-26T05:24:08;1.50;;;1.50;;
33152;SDS011;19509;43.862;26.176;2023-02-26T05:26:33;1.50;;;1.50;;
33152;SDS011;19509;43.862;26.176;2023-02-26T05:28:59;1.40;;;1.40;;
33152;SDS011;19509;43.862;26.176;2023-02-26T05:31:25;1.20;;;1.20;;
33152;SDS011;19509;43.862;26.176;2023-02-26T05:33:51;1.70;;;1.60;;
33152;SDS011;19509;43.862;26.176;2023-02-26T05:36:16;1.27;;;1.27;;
33152;SDS011;19509;43.862;26.176;2023-02-26T05:38:42;1.40;;;1.40;;
33152;SDS011;19509;43.862;26.176;2023-02-26T05:41:07;1.40;;;1.40;;
33152;SDS011;19509;43.862;26.176;2023-02-26T05:43:33;1.80;;;1.70;;
33152;SDS011;19509;43.862;26.176;2023-02-26T05:45:58;1.40;;;1.40;;
33152;SDS011;19509;43.862;26.176;2023-02-26T05:48:24;1.50;;;1.50;;
33152;SDS011;19509;43.862;26.176;2023-02-26T05:50:49;1.67;;;1.57;;
33152;SDS011;19509;43.862;26.176;2023-02-26T05:53:16;1.60;;;1.50;;
33152;SDS011;19509;43.862;26.176;2023-02-26T05:55:42;1.60;;;1.50;;
33152;SDS011;19509;43.862;26.176;2023-02-26T05:58:07;1.30;;;1.30;;
33152;SDS011;19509;43.862;26.176;2023-02-26T06:00:32;4.33;;;1.60;;
33152;SDS011;19509;43.862;26.176;2023-02-26T06:02:58;1.40;;;1.40;;
33152;SDS011;19509;43.862;26.176;2023-02-26T06:05:23;1.60;;;1.50;;
33152;SDS011;19509;43.862;26.176;2023-02-26T06:07:49;2.10;;;1.50;;
33152;SDS011;19509;43.862;26.176;2023-02-26T06:10:15;1.43;;;1.43;;
33152;SDS011;19509;43.862;26.176;2023-02-26T06:12:40;1.20;;;1.20;;
33152;SDS011;19509;43.862;26.176;2023-02-26T06:15:06;1.43;;;1.43;;
33152;SDS011;19509;43.862;26.176;2023-02-26T06:17:33;1.50;;;1.50;;
33152;SDS011;19509;43.862;26.176;2023-02-26T06:19:59;1.37;;;1.30;;
33152;SDS011;19509;43.862;26.176;2023-02-26T06:22:24;1.67;;;1.40;;
33152;SDS011;19509;43.862;26.176;2023-02-26T06:24:51;1.73;;;1.47;;
33152;SDS011;19509;43.862;26.176;2023-02-26T06:27:19;1.30;;;1.30;;
33152;SDS011;19509;43.862;26.176;2023-02-26T06:29:44;1.47;;;1.37;;
33152;SDS011;19509;43.862;26.176;2023-02-26T06:32:10;1.60;;;1.50;;
33152;SDS011;19509;43.862;26.176;2023-02-26T06:34:35;1.30;;;1.23;;
33152;SDS011;19509;43.862;26.176;2023-02-26T06:37:00;1.67;;;1.57;;
33152;SDS011;19509;43.862;26.176;2023-02-26T06:39:26;1.40;;;1.40;;
33152;SDS011;19509;43.862;26.176;2023-02-26T06:41:51;1.27;;;1.27;;
33152;SDS011;19509;43.862;26.176;2023-02-26T06:44:17;1.67;;;1.57;;
33152;SDS011;19509;43.862;26.176;2023-02-26T06:46:42;1.73;;;1.60;;
33152;SDS011;19509;43.862;26.176;2023-02-26T06:49:08;1.53;;;1.53;;
33152;SDS011;19509;43.862;26.176;2023-02-26T06:51:33;1.40;;;1.40;;
33152;SDS011;19509;43.862;26.176;2023-02-26T06:53:59;1.80;;;1.70;;
33152;SDS011;19509;43.862;26.176;2023-02-26T06:56:24;2.00;;;1.67;;
33152;SDS011;19509;43.862;26.176;2023-02-26T06:58:50;1.60;;;1.60;;
33152;SDS011;19509;43.862;26.176;2023-02-26T07:01:15;1.40;;;1.40;;
33152;SDS011;19509;43.862;26.176;2023-02-26T07:03:41;1.57;;;1.47;;
33152;SDS011;19509;43.862;26.176;2023-02-26T07:06:08;1.60;;;1.60;;
33152;SDS011;19509;43.862;26.176;2023-02-26T07:08:35;1.60;;;1.50;;
33152;SDS011;19509;43.862;26.176;2023-02-26T07:11:00;1.67;;;1.57;;
33152;SDS011;19509;43.862;26.176;2023-02-26T07:13:26;1.60;;;1.50;;
33152;SDS011;19509;43.862;26.176;2023-02-26T07:15:52;1.70;;;1.60;;
33152;SDS011;19509;43.862;26.176;2023-02-26T07:18:17;1.70;;;1.70;;
33152;SDS011;19509;43.862;26.176;2023-02-26T07:20:43;2.13;;;2.03;;
33152;SDS011;19509;43.862;26.176;2023-02-26T07:23:09;1.70;;;1.70;;
33152;SDS011;19509;43.862;26.176;2023-02-26T07:25:35;1.80;;;1.70;;
33152;SDS011;19509;43.862;26.176;2023-02-26T07:28:02;1.83;;;1.73;;
33152;SDS011;19509;43.862;26.176;2023-02-26T07:30:28;1.87;;;1.77;;
33152;SDS011;19509;43.862;26.176;2023-02-26T07:32:53;1.60;;;1.57;;
33152;SDS011;19509;43.862;26.176;2023-02-26T07:35:19;1.87;;;1.67;;
33152;SDS011;19509;43.862;26.176;2023-02-26T07:37:44;1.67;;;1.67;;
33152;SDS011;19509;43.862;26.176;2023-02-26T07:40:10;1.80;;;1.80;;
33152;SDS011;19509;43.862;26.176;2023-02-26T07:42:36;1.77;;;1.67;;
33152;SDS011;19509;43.862;26.176;2023-02-26T07:45:02;2.53;;;1.90;;
33152;SDS011;19509;43.862;26.176;2023-02-26T07:47:28;1.80;;;1.80;;
33152;SDS011;19509;43.862;26.176;2023-02-26T07:49:54;4.10;;;4.00;;
33152;SDS011;19509;43.862;26.176;2023-02-26T07:52:20;3.53;;;3.43;;
33152;SDS011;19509;43.862;26.176;2023-02-26T07:54:46;1.67;;;1.67;;
33152;SDS011;19509;43.862;26.176;2023-02-26T07:57:11;1.90;;;1.80;;
33152;SDS011;19509;43.862;26.176;2023-02-26T07:59:37;1.70;;;1.60;;
33152;SDS011;19509;43.862;26.176;2023-02-26T08:02:02;1.47;;;1.40;;
33152;SDS011;19509;43.862;26.176;2023-02-26T08:04:28;1.67;;;1.57;;
33152;SDS011;19509;43.862;26.176;2023-02-26T08:06:55;1.80;;;1.70;;
33152;SDS011;19509;43.862;26.176;2023-02-26T08:09:21;1.33;;;1.30;;
33152;SDS011;19509;43.862;26.176;2023-02-26T08:11:47;1.30;;;1.30;;
33152;SDS011;19509;43.862;26.176;2023-02-26T08:14:12;1.30;;;1.30;;
33152;SDS011;19509;43.862;26.176;2023-02-26T08:16:38;2.60;;;1.67;;
33152;SDS011;19509;43.862;26.176;2023-02-26T08:19:04;1.30;;;1.30;;
33152;SDS011;19509;43.862;26.176;2023-02-26T08:21:29;1.30;;;1.30;;
33152;SDS011;19509;43.862;26.176;2023-02-26T08:23:55;1.57;;;1.47;;
33152;SDS011;19509;43.862;26.176;2023-02-26T08:26:20;1.50;;;1.40;;
33152;SDS011;19509;43.862;26.176;2023-02-26T08:28:46;1.00;;;1.00;;
33152;SDS011;19509;43.862;26.176;2023-02-26T08:31:12;1.63;;;1.53;;
33152;SDS011;19509;43.862;26.176;2023-02-26T08:33:38;1.10;;;1.10;;
33152;SDS011;19509;43.862;26.176;2023-02-26T08:36:04;1.37;;;1.37;;
33152;SDS011;19509;43.862;26.176;2023-02-26T08:38:30;1.30;;;1.30;;
33152;SDS011;19509;43.862;26.176;2023-02-26T08:40:56;1.33;;;1.30;;
33152;SDS011;19509;43.862;26.176;2023-02-26T08:43:22;1.60;;;1.50;;
33152;SDS011;19509;43.862;26.176;2023-02-26T08:45:47;1.40;;;1.30;;
33152;SDS011;19509;43.862;26.176;2023-02-26T08:48:16;1.40;;;1.40;;
33152;SDS011;19509;43.862;26.176;2023-02-26T08:50:41;1.20;;;1.20;;
33152;SDS011;19509;43.862;26.176;2023-02-26T08:53:07;1.60;;;1.60;;
33152;SDS011;19509;43.862;26.176;2023-02-26T08:55:32;1.63;;;1.20;;
33152;SDS011;19509;43.862;26.176;2023-02-26T08:57:58;1.40;;;1.40;;
33152;SDS011;19509;43.862;26.176;2023-02-26T09:00:23;1.70;;;1.60;;
33152;SDS011;19509;43.862;26.176;2023-02-26T09:02:49;1.57;;;1.47;;
33152;SDS011;19509;43.862;26.176;2023-02-26T09:05:14;1.63;;;1.60;;
33152;SDS011;19509;43.862;26.176;2023-02-26T09:07:40;1.50;;;1.50;;
33152;SDS011;19509;43.862;26.176;2023-02-26T09:10:07;1.40;;;1.40;;
33152;SDS011;19509;43.862;26.176;2023-02-26T09:12:34;1.43;;;1.40;;
33152;SDS011;19509;43.862;26.176;2023-02-26T09:15:02;1.20;;;1.20;;
33152;SDS011;19509;43.862;26.176;2023-02-26T09:17:29;1.70;;;1.60;;
33152;SDS011;19509;43.862;26.176;2023-02-26T09:19:55;1.30;;;1.20;;
33152;SDS011;19509;43.862;26.176;2023-02-26T09:22:20;1.33;;;1.33;;
33152;SDS011;19509;43.862;26.176;2023-02-26T09:24:46;1.37;;;1.27;;
33152;SDS011;19509;43.862;26.176;2023-02-26T09:27:11;1.60;;;1.50;;
33152;SDS011;19509;43.862;26.176;2023-02-26T09:29:37;1.73;;;1.63;;
33152;SDS011;19509;43.862;26.176;2023-02-26T09:32:02;2.63;;;1.67;;
33152;SDS011;19509;43.862;26.176;2023-02-26T09:34:32;2.10;;;1.63;;
33152;SDS011;19509;43.862;26.176;2023-02-26T09:37:01;1.50;;;1.30;;
33152;SDS011;19509;43.862;26.176;2023-02-26T09:39:28;2.60;;;1.33;;
33152;SDS011;19509;43.862;26.176;2023-02-26T09:41:54;1.30;;;1.30;;
33152;SDS011;19509;43.862;26.176;2023-02-26T09:49:28;1.60;;;1.50;;
33152;SDS011;19509;43.862;26.176;2023-02-26T09:51:57;1.50;;;1.40;;
33152;SDS011;19509;43.862;26.176;2023-02-26T09:54:45;4.40;;;1.70;;
33152;SDS011;19509;43.862;26.176;2023-02-26T09:57:14;1.53;;;1.43;;
33152;SDS011;19509;43.862;26.176;2023-02-26T09:59:49;1.47;;;1.37;;
33152;SDS011;19509;43.862;26.176;2023-02-26T10:02:20;1.60;;;1.50;;
33152;SDS011;19509;43.862;26.176;2023-02-26T10:07:34;1.20;;;1.20;;
33152;SDS011;19509;43.862;26.176;2023-02-26T10:10:21;1.53;;;1.53;;
33152;SDS011;19509;43.862;26.176;2023-02-26T10:12:54;1.40;;;1.40;;
33152;SDS011;19509;43.862;26.176;2023-02-26T10:18:12;1.80;;;1.70;;
33152;SDS011;19509;43.862;26.176;2023-02-26T10:20:48;1.37;;;1.27;;
33152;SDS011;19509;43.862;26.176;2023-02-26T10:23:19;2.27;;;1.70;;
33152;SDS011;19509;43.862;26.176;2023-02-26T10:39:30;1.30;;;1.30;;
33152;SDS011;19509;43.862;26.176;2023-02-26T10:42:01;1.60;;;1.50;;
33152;SDS011;19509;43.862;26.176;2023-02-26T10:52:25;1.77;;;1.77;;
33152;SDS011;19509;43.862;26.176;2023-02-26T10:57:39;1.67;;;1.67;;
33152;SDS011;19509;43.862;26.176;2023-02-26T11:00:14;1.70;;;1.60;;
33152;SDS011;19509;43.862;26.176;2023-02-26T11:02:43;2.80;;;2.07;;
33152;SDS011;19509;43.862;26.176;2023-02-26T11:05:14;2.20;;;2.10;;
33152;SDS011;19509;43.862;26.176;2023-02-26T11:07:44;2.47;;;1.70;;
33152;SDS011;19509;43.862;26.176;2023-02-26T11:10:17;1.73;;;1.73;;
33152;SDS011;19509;43.862;26.176;2023-02-26T11:12:47;2.40;;;2.20;;
33152;SDS011;19509;43.862;26.176;2023-02-26T11:15:14;1.93;;;1.83;;
33152;SDS011;19509;43.862;26.176;2023-02-26T11:17:52;1.93;;;1.83;;
33152;SDS011;19509;43.862;26.176;2023-02-26T11:23:18;1.90;;;1.80;;
33152;SDS011;19509;43.862;26.176;2023-02-26T11:25:46;2.17;;;2.07;;
33152;SDS011;19509;43.862;26.176;2023-02-26T11:28:24;2.87;;;1.77;;
33152;SDS011;19509;43.862;26.176;2023-02-26T11:30:53;1.67;;;1.67;;
33152;SDS011;19509;43.862;26.176;2023-02-26T11:34:07;2.23;;;2.03;;
33152;SDS011;19509;43.862;26.176;2023-02-26T11:36:14;1.60;;;1.60;;
33152;SDS011;19509;43.862;26.176;2023-02-26T11:38:46;1.77;;;1.67;;
33152;SDS011;19509;43.862;26.176;2023-02-26T11:41:17;2.43;;;2.23;;
33152;SDS011;19509;43.862;26.176;2023-02-26T11:43:44;5.10;;;2.20;;
33152;SDS011;19509;43.862;26.176;2023-02-26T11:46:13;1.83;;;1.83;;
33152;SDS011;19509;43.862;26.176;2023-02-26T11:48:40;3.13;;;3.03;;
33152;SDS011;19509;43.862;26.176;2023-02-26T11:51:11;1.53;;;1.53;;
33152;SDS011;19509;43.862;26.176;2023-02-26T11:53:53;1.60;;;1.50;;
33152;SDS011;19509;43.862;26.176;2023-02-26T11:59:19;1.40;;;1.40;;
33152;SDS011;19509;43.862;26.176;2023-02-26T12:01:47;1.83;;;1.60;;
33152;SDS011;19509;43.862;26.176;2023-02-26T12:04:17;1.70;;;1.60;;
33152;SDS011;19509;43.862;26.176;2023-02-26T12:06:45;1.50;;;1.40;;
33152;SDS011;19509;43.862;26.176;2023-02-26T12:09:15;1.37;;;1.30;;
33152;SDS011;19509;43.862;26.176;2023-02-26T12:14:32;1.33;;;1.33;;
33152;SDS011;19509;43.862;26.176;2023-02-26T12:20:09;1.53;;;1.47;;
33152;SDS011;19509;43.862;26.176;2023-02-26T12:23:41;1.60;;;1.50;;
33152;SDS011;19509;43.862;26.176;2023-02-26T12:26:08;2.07;;;1.50;;
33152;SDS011;19509;43.862;26.176;2023-02-26T12:28:58;1.30;;;1.30;;
33152;SDS011;19509;43.862;26.176;2023-02-26T12:45:20;1.47;;;1.40;;
33152;SDS011;19509;43.862;26.176;2023-02-26T12:48:18;1.70;;;1.53;;
33152;SDS011;19509;43.862;26.176;2023-02-26T12:51:05;1.70;;;1.60;;
33152;SDS011;19509;43.862;26.176;2023-02-26T13:27:38;1.30;;;1.30;;
33152;SDS011;19509;43.862;26.176;2023-02-26T13:32:30;1.43;;;1.40;;
33152;SDS011;19509;43.862;26.176;2023-02-26T13:35:32;1.60;;;1.50;;
33152;SDS011;19509;43.862;26.176;2023-02-26T13:37:56;1.67;;;1.57;;
33152;SDS011;19509;43.862;26.176;2023-02-26T13:40:42;1.83;;;1.57;;
33152;SDS011;19509;43.862;26.176;2023-02-26T13:52:03;2.30;;;1.50;;
33152;SDS011;19509;43.862;26.176;2023-02-26T13:54:33;1.50;;;1.40;;
33152;SDS011;19509;43.862;26.176;2023-02-26T14:02:49;1.30;;;1.30;;
33152;SDS011;19509;43.862;26.176;2023-02-26T14:05:29;1.40;;;1.30;;
33152;SDS011;19509;43.862;26.176;2023-02-26T14:10:45;1.40;;;1.40;;
33152;SDS011;19509;43.862;26.176;2023-02-26T14:13:22;1.30;;;1.30;;
33152;SDS011;19509;43.862;26.176;2023-02-26T14:16:02;1.47;;;1.37;;
33152;SDS011;19509;43.862;26.176;2023-02-26T14:18:52;1.47;;;1.37;;
33152;SDS011;19509;43.862;26.176;2023-02-26T14:23:57;1.50;;;1.40;;
33152;SDS011;19509;43.862;26.176;2023-02-26T14:26:24;1.53;;;1.27;;
33152;SDS011;19509;43.862;26.176;2023-02-26T14:28:55;1.30;;;1.30;;
33152;SDS011;19509;43.862;26.176;2023-02-26T14:31:22;1.60;;;1.50;;
33152;SDS011;19509;43.862;26.176;2023-02-26T14:34:07;1.60;;;1.50;;
33152;SDS011;19509;43.862;26.176;2023-02-26T14:36:43;1.40;;;1.30;;
33152;SDS011;19509;43.862;26.176;2023-02-26T14:39:24;1.33;;;1.23;;
33152;SDS011;19509;43.862;26.176;2023-02-26T14:42:03;1.60;;;1.50;;
33152;SDS011;19509;43.862;26.176;2023-02-26T14:44:38;1.43;;;1.33;;
33152;SDS011;19509;43.862;26.176;2023-02-26T14:47:07;1.40;;;1.40;;
33152;SDS011;19509;43.862;26.176;2023-02-26T14:49:37;1.60;;;1.50;;
33152;SDS011;19509;43.862;26.176;2023-02-26T15:09:17;1.10;;;1.10;;
33152;SDS011;19509;43.862;26.176;2023-02-26T15:11:54;1.30;;;1.30;;
33152;SDS011;19509;43.862;26.176;2023-02-26T15:17:16;1.50;;;1.40;;
33152;SDS011;19509;43.862;26.176;2023-02-26T15:25:33;1.30;;;1.30;;
33152;SDS011;19509;43.862;26.176;2023-02-26T15:28:03;1.50;;;1.40;;
33152;SDS011;19509;43.862;26.176;2023-02-26T15:30:30;1.50;;;1.50;;
33152;SDS011;19509;43.862;26.176;2023-02-26T15:32:59;1.60;;;1.50;;
33152;SDS011;19509;43.862;26.176;2023-02-26T15:35:28;1.07;;;1.07;;
33152;SDS011;19509;43.862;26.176;2023-02-26T15:37:56;1.50;;;1.40;;
33152;SDS011;19509;43.862;26.176;2023-02-26T15:40:26;2.57;;;1.53;;
33152;SDS011;19509;43.862;26.176;2023-02-26T15:42:56;1.30;;;1.20;;
33152;SDS011;19509;43.862;26.176;2023-02-26T15:47:56;1.40;;;1.20;;
33152;SDS011;19509;43.862;26.176;2023-02-26T15:50:29;2.20;;;1.60;;
33152;SDS011;19509;43.862;26.176;2023-02-26T15:52:58;1.50;;;1.50;;
33152;SDS011;19509;43.862;26.176;2023-02-26T15:55:33;1.43;;;1.43;;
33152;SDS011;19509;43.862;26.176;2023-02-26T15:58:01;1.30;;;1.30;;
33152;SDS011;19509;43.862;26.176;2023-02-26T16:00:30;1.50;;;1.50;;
33152;SDS011;19509;43.862;26.176;2023-02-26T16:02:57;1.50;;;1.50;;
33152;SDS011;19509;43.862;26.176;2023-02-26T16:05:26;2.03;;;2.03;;
33152;SDS011;19509;43.862;26.176;2023-02-26T16:07:53;1.70;;;1.70;;
33152;SDS011;19509;43.862;26.176;2023-02-26T16:10:31;2.13;;;2.03;;
33152;SDS011;19509;43.862;26.176;2023-02-26T16:12:59;1.40;;;1.40;;
33152;SDS011;19509;43.862;26.176;2023-02-26T16:15:33;2.10;;;2.00;;
33152;SDS011;19509;43.862;26.176;2023-02-26T16:18:03;1.83;;;1.80;;
33152;SDS011;19509;43.862;26.176;2023-02-26T16:20:34;2.30;;;2.20;;
33152;SDS011;19509;43.862;26.176;2023-02-26T16:23:12;1.57;;;1.57;;
33152;SDS011;19509;43.862;26.176;2023-02-26T16:28:14;1.70;;;1.40;;
33152;SDS011;19509;43.862;26.176;2023-02-26T16:30:43;1.63;;;1.63;;
33152;SDS011;19509;43.862;26.176;2023-02-26T16:33:14;3.03;;;1.50;;
33152;SDS011;19509;43.862;26.176;2023-02-26T16:36:14;1.87;;;1.77;;
33152;SDS011;19509;43.862;26.176;2023-02-26T16:38:45;1.67;;;1.57;;
33152;SDS011;19509;43.862;26.176;2023-02-26T16:41:13;1.73;;;1.63;;
33152;SDS011;19509;43.862;26.176;2023-02-26T16:46:14;1.70;;;1.60;;
33152;SDS011;19509;43.862;26.176;2023-02-26T16:51:18;1.80;;;1.80;;
33152;SDS011;19509;43.862;26.176;2023-02-26T16:53:59;1.80;;;1.40;;
33152;SDS011;19509;43.862;26.176;2023-02-26T16:56:33;1.37;;;1.27;;
33152;SDS011;19509;43.862;26.176;2023-02-26T17:04:36;3.33;;;1.40;;
33152;SDS011;19509;43.862;26.176;2023-02-26T17:10:23;1.23;;;1.23;;
33152;SDS011;19509;43.862;26.176;2023-02-26T17:13:09;1.23;;;1.23;;
33152;SDS011;19509;43.862;26.176;2023-02-26T17:15:38;1.30;;;1.30;;
33152;SDS011;19509;43.862;26.176;2023-02-26T17:18:05;3.40;;;1.40;;
33152;SDS011;19509;43.862;26.176;2023-02-26T17:20:30;1.47;;;1.37;;
33152;SDS011;19509;43.862;26.176;2023-02-26T17:22:57;1.00;;;1.00;;
33152;SDS011;19509;43.862;26.176;2023-02-26T17:25:24;1.60;;;1.50;;
33152;SDS011;19509;43.862;26.176;2023-02-26T17:27:54;1.30;;;1.30;;
33152;SDS011;19509;43.862;26.176;2023-02-26T17:30:21;1.70;;;1.60;;
33152;SDS011;19509;43.862;26.176;2023-02-26T17:32:48;1.23;;;1.23;;
33152;SDS011;19509;43.862;26.176;2023-02-26T17:35:14;1.30;;;1.20;;
33152;SDS011;19509;43.862;26.176;2023-02-26T17:37:41;2.10;;;1.73;;
33152;SDS011;19509;43.862;26.176;2023-02-26T17:40:18;1.40;;;1.30;;
33152;SDS011;19509;43.862;26.176;2023-02-26T17:42:49;1.47;;;1.47;;
33152;SDS011;19509;43.862;26.176;2023-02-26T17:45:16;1.50;;;1.40;;
33152;SDS011;19509;43.862;26.176;2023-02-26T17:47:42;1.10;;;1.10;;
33152;SDS011;19509;43.862;26.176;2023-02-26T17:50:17;1.30;;;1.20;;
33152;SDS011;19509;43.862;26.176;2023-02-26T17:52:47;1.40;;;1.40;;
33152;SDS011;19509;43.862;26.176;2023-02-26T17:55:13;1.73;;;1.37;;
33152;SDS011;19509;43.862;26.176;2023-02-26T17:57:38;1.50;;;1.40;;
33152;SDS011;19509;43.862;26.176;2023-02-26T18:00:04;1.90;;;1.50;;
33152;SDS011;19509;43.862;26.176;2023-02-26T18:02:29;1.20;;;1.20;;
33152;SDS011;19509;43.862;26.176;2023-02-26T18:04:55;1.10;;;1.10;;
33152;SDS011;19509;43.862;26.176;2023-02-26T18:07:21;1.73;;;1.57;;
33152;SDS011;19509;43.862;26.176;2023-02-26T18:09:48;1.17;;;1.17;;
33152;SDS011;19509;43.862;26.176;2023-02-26T18:12:14;1.20;;;1.20;;
33152;SDS011;19509;43.862;26.176;2023-02-26T18:14:41;1.13;;;1.13;;
33152;SDS011;19509;43.862;26.176;2023-02-26T18:17:11;1.10;;;1.10;;